Time;durP1;ratioP1;P1;durP2;ratioP2;P2;SDS_P1;SDS_P2;PMS_P1;PMS_P2;Temp;Humidity;BMP_temperature;BMP_pressure;BME280_temperature;BME280_humidity;BME280_pressure;Samples;Min_cycle;Max_cycle;Signal;HPM_P1;HPM_P2
2024/02/17 00:00:53;;;;;;;10.20;3.78;;;11.60;99.90;;;;;;5031596;28;20376;-87
2024/02/17 00:03:22;;;;;;;5.85;3.80;;;11.60;99.90;;;;;;5014173;28;20084;-88
2024/02/17 00:05:51;;;;;;;6.55;3.40;;;11.60;99.90;;;;;;5025197;28;20045;-88
2024/02/17 00:08:17;;;;;;;6.65;3.80;;;11.60;99.90;;;;;;5023367;28;20029;-87
2024/02/17 00:10:43;;;;;;;4.40;3.33;;;11.50;99.90;;;;;;5032498;28;20026;-87
2024/02/17 00:13:08;;;;;;;7.10;3.60;;;11.60;99.90;;;;;;5019588;28;20514;-87
2024/02/17 00:15:34;;;;;;;5.75;3.35;;;11.50;99.90;;;;;;5032349;28;20026;-88
2024/02/17 00:18:02;;;;;;;6.05;3.63;;;11.50;99.90;;;;;;5027326;28;20499;-87
2024/02/17 00:20:27;;;;;;;5.18;3.22;;;11.50;99.90;;;;;;5028527;28;20480;-89
2024/02/17 00:22:53;;;;;;;6.72;3.30;;;11.50;99.90;;;;;;5028756;28;20113;-87
2024/02/17 00:25:19;;;;;;;9.77;3.58;;;11.60;99.90;;;;;;5023971;28;20021;-88
2024/02/17 00:27:44;;;;;;;6.32;3.33;;;11.50;99.90;;;;;;5031786;28;20022;-88
2024/02/17 00:30:10;;;;;;;5.82;3.30;;;11.50;99.90;;;;;;5029104;28;20029;-87
2024/02/17 00:32:36;;;;;;;6.75;3.17;;;11.50;99.90;;;;;;5022126;28;20034;-88
2024/02/17 00:35:02;;;;;;;6.82;3.13;;;11.50;99.90;;;;;;5024509;28;20028;-87
2024/02/17 00:37:27;;;;;;;6.43;3.25;;;11.50;99.90;;;;;;5018952;28;20026;-88
2024/02/17 00:39:53;;;;;;;5.32;3.20;;;11.50;99.90;;;;;;5031157;28;20124;-87
2024/02/17 00:42:19;;;;;;;5.57;3.17;;;11.50;99.90;;;;;;5026622;28;20394;-88
2024/02/17 00:44:44;;;;;;;9.13;3.25;;;11.50;99.90;;;;;;5026834;28;20548;-88
2024/02/17 00:47:10;;;;;;;7.00;3.10;;;11.50;99.90;;;;;;5029216;28;20117;-87
2024/02/17 00:49:35;;;;;;;6.72;3.22;;;11.50;99.90;;;;;;5023917;28;20026;-88
2024/02/17 00:52:01;;;;;;;5.65;3.47;;;11.50;99.90;;;;;;5032426;28;20106;-88
2024/02/17 00:54:26;;;;;;;8.95;3.60;;;11.50;99.90;;;;;;5030775;28;20030;-88
2024/02/17 00:56:52;;;;;;;7.32;3.53;;;11.50;99.90;;;;;;5028748;28;20022;-87
2024/02/17 00:59:17;;;;;;;6.65;2.78;;;11.50;99.90;;;;;;5033550;28;20492;-88
2024/02/17 01:01:43;;;;;;;6.20;3.42;;;11.50;99.90;;;;;;5018362;28;20022;-87
2024/02/17 01:04:09;;;;;;;7.13;3.40;;;11.50;99.90;;;;;;5026797;28;20513;-87
2024/02/17 01:06:34;;;;;;;5.57;2.65;;;11.50;99.90;;;;;;5027471;28;20108;-87
2024/02/17 01:09:00;;;;;;;5.47;3.17;;;11.50;99.90;;;;;;5036485;28;20079;-87
2024/02/17 01:11:26;;;;;;;5.88;3.38;;;11.50;99.90;;;;;;5027523;28;20036;-87
2024/02/17 01:13:51;;;;;;;7.20;3.30;;;11.50;99.90;;;;;;5036463;28;20033;-88
2024/02/17 01:16:17;;;;;;;8.75;3.58;;;11.50;99.90;;;;;;5032025;28;20389;-87
2024/02/17 01:18:43;;;;;;;4.97;2.78;;;11.50;99.90;;;;;;5028865;28;20018;-86
2024/02/17 01:21:08;;;;;;;4.63;3.08;;;11.50;99.90;;;;;;5035899;28;20474;-87
2024/02/17 01:23:34;;;;;;;5.45;3.33;;;11.50;99.90;;;;;;5033728;28;20601;-88
2024/02/17 01:25:59;;;;;;;5.63;2.83;;;11.50;99.90;;;;;;5031478;28;20029;-88
2024/02/17 01:28:25;;;;;;;8.13;3.33;;;11.50;99.90;;;;;;5032193;28;20551;-87
2024/02/17 01:30:50;;;;;;;6.13;3.40;;;11.50;99.90;;;;;;5032916;28;20036;-87
2024/02/17 01:33:16;;;;;;;6.18;3.20;;;11.40;99.90;;;;;;5024751;28;20030;-88
2024/02/17 01:35:42;;;;;;;4.57;2.40;;;11.50;99.90;;;;;;5027974;28;20058;-87
2024/02/17 01:38:08;;;;;;;4.78;3.17;;;11.50;99.90;;;;;;5031556;28;20056;-88
2024/02/17 01:40:34;;;;;;;4.88;3.15;;;11.50;99.90;;;;;;5037232;28;20022;-87
2024/02/17 01:43:00;;;;;;;5.28;3.25;;;11.50;99.90;;;;;;5039927;28;20024;-87
2024/02/17 01:45:26;;;;;;;4.07;2.70;;;11.50;99.90;;;;;;5048857;28;20026;-88
2024/02/17 01:47:54;;;;;;;5.70;2.80;;;11.50;99.90;;;;;;5034093;28;20434;-87
2024/02/17 01:50:19;;;;;;;4.72;2.78;;;11.50;99.90;;;;;;5033159;28;20029;-88
2024/02/17 01:52:46;;;;;;;5.32;2.83;;;11.50;99.90;;;;;;5034628;28;20028;-88
2024/02/17 01:55:13;;;;;;;4.70;3.00;;;11.50;99.90;;;;;;5046740;28;20043;-87
2024/02/17 01:57:39;;;;;;;3.85;2.70;;;11.50;99.90;;;;;;5031998;28;20029;-88
2024/02/17 02:00:07;;;;;;;4.05;3.00;;;11.50;99.90;;;;;;5027942;28;20021;-87
2024/02/17 02:02:33;;;;;;;4.88;3.05;;;11.50;99.90;;;;;;5025469;28;20069;-88
2024/02/17 02:04:59;;;;;;;4.65;3.00;;;11.50;99.90;;;;;;5017088;28;20094;-86
2024/02/17 02:07:25;;;;;;;4.45;3.20;;;11.50;99.90;;;;;;5028728;28;20559;-87
2024/02/17 02:09:50;;;;;;;6.97;3.20;;;11.50;99.90;;;;;;5027796;28;20411;-86
2024/02/17 02:12:17;;;;;;;3.88;2.70;;;11.50;99.90;;;;;;5039000;28;20139;-87
2024/02/17 02:14:42;;;;;;;5.20;2.85;;;11.50;99.90;;;;;;5030340;28;20022;-87
2024/02/17 02:17:08;;;;;;;4.10;3.05;;;11.40;99.90;;;;;;5036989;28;20554;-88
2024/02/17 02:19:34;;;;;;;3.85;2.85;;;11.50;99.90;;;;;;5031169;28;20109;-88
2024/02/17 02:21:59;;;;;;;4.97;3.03;;;11.40;99.90;;;;;;5030919;28;20438;-87
2024/02/17 02:24:25;;;;;;;6.13;3.00;;;11.50;99.90;;;;;;5037355;28;20045;-88
2024/02/17 02:26:50;;;;;;;4.20;2.90;;;11.50;99.90;;;;;;5023712;28;20017;-88
2024/02/17 02:29:16;;;;;;;8.75;3.53;;;11.50;99.90;;;;;;5022911;28;20030;-88
2024/02/17 02:31:42;;;;;;;4.53;2.78;;;11.50;99.90;;;;;;5040886;28;20025;-88
2024/02/17 02:34:07;;;;;;;6.38;3.50;;;11.40;99.90;;;;;;5037601;28;20025;-88
2024/02/17 02:36:33;;;;;;;5.43;3.30;;;11.50;99.90;;;;;;5032097;28;20018;-88
2024/02/17 02:38:58;;;;;;;6.88;2.90;;;11.50;99.90;;;;;;5018360;28;20028;-88
2024/02/17 02:41:24;;;;;;;5.38;3.08;;;11.50;99.90;;;;;;5027151;28;20049;-89
2024/02/17 02:43:50;;;;;;;5.18;3.25;;;11.50;99.90;;;;;;5029866;28;20040;-87
2024/02/17 02:46:15;;;;;;;8.77;3.30;;;11.50;99.90;;;;;;5039324;28;20052;-87
2024/02/17 02:48:41;;;;;;;3.17;2.83;;;11.40;99.90;;;;;;5038484;28;20033;-87
2024/02/17 02:51:07;;;;;;;3.65;2.85;;;11.40;99.90;;;;;;5040783;28;20487;-87
2024/02/17 02:53:33;;;;;;;6.40;3.30;;;11.40;99.90;;;;;;5031696;28;20500;-86
2024/02/17 02:55:58;;;;;;;4.10;2.50;;;11.40;99.90;;;;;;5030155;28;20028;-87
2024/02/17 02:58:24;;;;;;;5.25;2.58;;;11.40;99.90;;;;;;5028456;28;20022;-87
2024/02/17 03:00:49;;;;;;;4.25;2.85;;;11.40;99.90;;;;;;5033539;28;20026;-88
2024/02/17 03:03:15;;;;;;;4.22;3.00;;;11.40;99.90;;;;;;5035314;28;20037;-87
2024/02/17 03:05:41;;;;;;;5.43;3.08;;;11.40;99.90;;;;;;5031853;28;20080;-88
2024/02/17 03:08:07;;;;;;;5.65;3.30;;;11.40;99.90;;;;;;5033925;28;20107;-88
2024/02/17 03:10:32;;;;;;;4.68;2.80;;;11.40;99.90;;;;;;5028941;28;20037;-87
2024/02/17 03:12:59;;;;;;;3.35;2.85;;;11.40;99.90;;;;;;5033628;28;20122;-87
2024/02/17 03:15:24;;;;;;;3.85;2.63;;;11.40;99.90;;;;;;5025738;28;20033;-87
2024/02/17 03:17:56;;;;;;;4.53;2.78;;;11.50;99.90;;;;;;5026213;28;20031;-87
2024/02/17 03:20:22;;;;;;;7.10;3.22;;;11.50;99.90;;;;;;5035529;28;20025;-88
2024/02/17 03:22:47;;;;;;;5.07;2.40;;;11.40;99.90;;;;;;5025154;28;20037;-88
2024/02/17 03:25:13;;;;;;;3.85;2.50;;;11.40;99.90;;;;;;5022905;28;20017;-88
2024/02/17 03:27:39;;;;;;;4.28;2.90;;;11.50;99.90;;;;;;5026820;28;20038;-87
2024/02/17 03:30:06;;;;;;;4.38;2.90;;;11.40;99.90;;;;;;5033170;28;20021;-88
2024/02/17 03:32:32;;;;;;;4.53;2.97;;;11.40;99.90;;;;;;5030647;28;20034;-87
2024/02/17 03:34:59;;;;;;;4.70;2.95;;;11.40;99.90;;;;;;5030531;28;20032;-88
2024/02/17 03:37:25;;;;;;;3.65;2.72;;;11.40;99.90;;;;;;5026577;28;20044;-87
2024/02/17 03:39:51;;;;;;;3.50;2.38;;;11.40;99.90;;;;;;5028698;28;20091;-87
2024/02/17 03:42:17;;;;;;;4.50;2.47;;;11.40;99.90;;;;;;5028695;28;20484;-88
2024/02/17 03:44:42;;;;;;;4.53;2.75;;;11.40;99.90;;;;;;5022951;28;20155;-88
2024/02/17 03:47:08;;;;;;;3.22;2.28;;;11.40;99.90;;;;;;5023411;28;20021;-88
2024/02/17 03:49:34;;;;;;;4.57;2.22;;;11.40;99.90;;;;;;5032336;28;20078;-87
2024/02/17 03:51:59;;;;;;;3.60;2.60;;;11.40;99.90;;;;;;5027525;28;20017;-87
2024/02/17 03:54:26;;;;;;;3.08;2.63;;;11.40;99.90;;;;;;5025449;28;20650;-88
2024/02/17 03:56:52;;;;;;;5.45;2.55;;;11.40;99.90;;;;;;5031108;28;20021;-87
2024/02/17 03:59:17;;;;;;;4.80;2.45;;;11.40;99.90;;;;;;5031250;28;20032;-88
2024/02/17 04:01:43;;;;;;;2.38;1.95;;;11.40;99.90;;;;;;5038252;28;20431;-88
2024/02/17 04:04:09;;;;;;;3.80;2.60;;;11.40;99.90;;;;;;5033527;28;20035;-88
2024/02/17 04:06:34;;;;;;;3.28;2.42;;;11.40;99.90;;;;;;5021689;28;20026;-88
2024/02/17 04:09:00;;;;;;;5.72;2.50;;;11.40;99.90;;;;;;5039282;28;20026;-88
2024/02/17 04:11:26;;;;;;;7.38;2.40;;;11.40;99.90;;;;;;5040606;28;20025;-89
2024/02/17 04:13:52;;;;;;;3.40;2.08;;;11.40;99.90;;;;;;5030867;28;20022;-87
2024/02/17 04:16:19;;;;;;;3.58;2.20;;;11.40;99.90;;;;;;5037608;28;20546;-87
2024/02/17 04:18:44;;;;;;;2.33;2.08;;;11.40;99.90;;;;;;5034867;28;20056;-90
2024/02/17 04:21:10;;;;;;;4.10;2.03;;;11.40;99.90;;;;;;5033427;28;20542;-88
2024/02/17 04:23:36;;;;;;;2.53;1.88;;;11.40;99.90;;;;;;5036877;28;20025;-87
2024/02/17 04:26:04;;;;;;;3.97;2.08;;;11.40;99.90;;;;;;5028728;28;20021;-89
2024/02/17 04:28:30;;;;;;;2.05;1.58;;;11.40;99.90;;;;;;5030573;28;20113;-87
2024/02/17 04:30:56;;;;;;;3.45;1.95;;;11.40;99.90;;;;;;5032236;28;20113;-88
2024/02/17 04:33:22;;;;;;;3.30;2.10;;;11.40;99.90;;;;;;5026738;28;20033;-87
2024/02/17 04:35:48;;;;;;;3.58;2.55;;;11.40;99.90;;;;;;5030063;28;20538;-87
2024/02/17 04:38:15;;;;;;;4.20;1.80;;;11.40;99.90;;;;;;5032598;28;20013;-88
2024/02/17 04:40:40;;;;;;;2.90;1.80;;;11.40;99.90;;;;;;5042986;28;20064;-87
2024/02/17 04:43:06;;;;;;;2.92;1.90;;;11.40;99.90;;;;;;5032943;28;20068;-87
2024/02/17 04:45:31;;;;;;;2.95;1.60;;;11.40;99.90;;;;;;5026115;28;20033;-87
2024/02/17 04:47:57;;;;;;;2.58;1.80;;;11.40;99.90;;;;;;5030507;28;20625;-87
2024/02/17 04:50:22;;;;;;;2.08;1.75;;;11.40;99.90;;;;;;5037598;28;20036;-88
2024/02/17 04:52:48;;;;;;;3.78;1.50;;;11.40;99.90;;;;;;5032710;28;20021;-87
2024/02/17 04:55:14;;;;;;;1.70;1.52;;;11.40;99.90;;;;;;5033275;28;20021;-87
2024/02/17 04:57:39;;;;;;;2.67;1.83;;;11.40;99.90;;;;;;5024366;28;20109;-87
2024/02/17 05:00:06;;;;;;;2.08;1.48;;;11.40;99.90;;;;;;5035926;28;20523;-87
2024/02/17 05:02:34;;;;;;;1.50;1.40;;;11.40;99.90;;;;;;5054538;28;20128;-86
2024/02/17 05:05:00;;;;;;;2.05;1.60;;;11.40;99.90;;;;;;5054298;28;20446;-88
2024/02/17 05:07:25;;;;;;;1.50;1.40;;;11.40;99.90;;;;;;5038072;28;20120;-87
2024/02/17 05:09:51;;;;;;;1.60;1.40;;;11.40;99.90;;;;;;5042652;28;20094;-87
2024/02/17 05:12:17;;;;;;;2.53;1.60;;;11.40;99.90;;;;;;5037833;28;20057;-87
2024/02/17 05:14:42;;;;;;;3.22;1.55;;;11.40;99.90;;;;;;5027763;28;20553;-88
2024/02/17 05:17:08;;;;;;;1.58;1.35;;;11.40;99.90;;;;;;5028462;28;20100;-87
2024/02/17 05:19:33;;;;;;;1.73;1.40;;;11.40;99.90;;;;;;5024704;28;20060;-88
2024/02/17 05:21:59;;;;;;;1.52;1.17;;;11.40;99.90;;;;;;5030014;28;20018;-88
2024/02/17 05:24:25;;;;;;;1.30;1.20;;;11.40;99.90;;;;;;5027831;28;20551;-87
2024/02/17 05:26:50;;;;;;;1.27;1.17;;;11.30;99.90;;;;;;5033957;28;20084;-88
2024/02/17 05:29:16;;;;;;;1.50;1.40;;;11.40;99.90;;;;;;5034303;28;20037;-88
2024/02/17 05:31:42;;;;;;;1.80;1.52;;;11.40;99.90;;;;;;5027412;28;20033;-88
2024/02/17 05:34:07;;;;;;;2.15;1.60;;;11.40;99.90;;;;;;5026223;28;20033;-88
2024/02/17 05:36:34;;;;;;;1.70;1.58;;;11.40;99.90;;;;;;5029500;28;20021;-86
2024/02/17 05:39:00;;;;;;;2.35;1.70;;;11.30;99.90;;;;;;5027371;28;20029;-87
2024/02/17 05:41:25;;;;;;;3.28;1.90;;;11.30;99.90;;;;;;5020733;28;20117;-88
2024/02/17 05:43:52;;;;;;;1.60;1.50;;;11.30;99.90;;;;;;5026412;28;20522;-87
2024/02/17 05:46:18;;;;;;;2.28;1.75;;;11.30;99.90;;;;;;5026020;28;20018;-87
2024/02/17 05:48:44;;;;;;;3.35;1.95;;;11.30;99.90;;;;;;5022791;28;20075;-87
2024/02/17 05:51:10;;;;;;;3.45;2.28;;;11.30;99.90;;;;;;5015887;28;20491;-88
2024/02/17 05:53:36;;;;;;;2.60;1.88;;;11.30;99.90;;;;;;5017091;28;20034;-87
2024/02/17 05:56:01;;;;;;;3.42;2.30;;;11.30;99.90;;;;;;5030766;28;20049;-87
2024/02/17 05:58:27;;;;;;;1.92;1.58;;;11.30;99.90;;;;;;5022599;28;20026;-88
2024/02/17 06:00:55;;;;;;;3.05;2.08;;;11.30;99.90;;;;;;5025084;28;20354;-87
2024/02/17 06:03:21;;;;;;;2.75;2.30;;;11.30;99.90;;;;;;5027129;28;20025;-88
2024/02/17 06:05:46;;;;;;;2.65;2.15;;;11.30;99.90;;;;;;5035715;28;20036;-87
2024/02/17 06:08:12;;;;;;;2.60;2.30;;;11.30;99.90;;;;;;5033088;28;20033;-87
2024/02/17 06:10:38;;;;;;;3.63;2.20;;;11.30;99.90;;;;;;5025160;28;20036;-87
2024/02/17 06:13:05;;;;;;;2.20;1.88;;;11.30;99.90;;;;;;5028735;28;20079;-87
2024/02/17 06:15:30;;;;;;;2.97;1.90;;;11.30;99.90;;;;;;5013245;28;20034;-87
2024/02/17 06:23:24;;;;;;;2.42;1.92;;;11.30;99.90;;;;;;5025022;28;20040;-87
2024/02/17 06:25:50;;;;;;;3.63;2.20;;;11.30;99.90;;;;;;5022336;28;20029;-87
2024/02/17 06:28:16;;;;;;;3.92;2.15;;;11.30;99.90;;;;;;5031181;28;20403;-87
2024/02/17 06:30:41;;;;;;;2.33;1.95;;;11.30;99.90;;;;;;5030562;28;20060;-87
2024/02/17 06:33:07;;;;;;;2.88;2.03;;;11.30;99.90;;;;;;5021518;28;20514;-87
2024/02/17 06:35:32;;;;;;;3.40;2.05;;;11.30;99.90;;;;;;5032477;28;20101;-87
2024/02/17 06:37:58;;;;;;;2.22;1.90;;;11.30;99.90;;;;;;5028552;28;20079;-87
2024/02/17 06:40:23;;;;;;;1.73;1.55;;;11.30;99.90;;;;;;5030596;28;20025;-86
2024/02/17 06:42:49;;;;;;;2.95;2.00;;;11.30;99.90;;;;;;5048870;28;20097;-87
2024/02/17 06:45:16;;;;;;;2.40;1.65;;;11.30;99.90;;;;;;5031931;28;20116;-87
2024/02/17 06:47:43;;;;;;;2.03;1.70;;;11.30;99.90;;;;;;5026658;28;20028;-87
2024/02/17 06:50:13;;;;;;;2.08;1.63;;;11.30;99.90;;;;;;5033598;28;20036;-87
2024/02/17 06:52:38;;;;;;;4.37;2.00;;;11.30;99.90;;;;;;5025276;28;20033;-88
2024/02/17 06:55:04;;;;;;;2.75;1.88;;;11.30;99.90;;;;;;5024423;28;20108;-87
2024/02/17 06:57:30;;;;;;;4.43;2.13;;;11.30;99.90;;;;;;5045259;28;20029;-88
2024/02/17 06:59:55;;;;;;;8.82;2.03;;;11.30;99.90;;;;;;5025017;28;20083;-87
2024/02/17 07:02:23;;;;;;;2.70;1.83;;;11.30;99.90;;;;;;5030877;28;20391;-88
2024/02/17 07:04:49;;;;;;;2.22;1.73;;;11.30;99.90;;;;;;5021374;28;20033;-88
2024/02/17 07:07:15;;;;;;;3.95;2.00;;;11.30;99.90;;;;;;5034822;28;20021;-87
2024/02/17 07:09:40;;;;;;;2.40;1.85;;;11.20;99.90;;;;;;5025934;28;20083;-87
2024/02/17 07:12:06;;;;;;;3.17;2.03;;;11.20;99.90;;;;;;5027976;28;20025;-87
2024/02/17 07:14:32;;;;;;;3.08;1.83;;;11.20;99.90;;;;;;5036218;28;20179;-86
2024/02/17 07:16:58;;;;;;;3.58;2.15;;;11.20;99.90;;;;;;5026486;28;20500;-87
2024/02/17 07:19:23;;;;;;;4.70;2.42;;;11.20;99.90;;;;;;5035036;28;20026;-88
2024/02/17 07:21:49;;;;;;;3.40;2.05;;;11.20;99.90;;;;;;5031879;28;20025;-88
2024/02/17 07:24:15;;;;;;;3.45;2.17;;;11.20;99.90;;;;;;5028616;28;20025;-87
2024/02/17 07:26:42;;;;;;;2.58;1.60;;;11.20;99.90;;;;;;5029444;28;20024;-87
2024/02/17 07:29:08;;;;;;;3.95;2.25;;;11.30;99.90;;;;;;5018523;28;20507;-88
2024/02/17 07:31:40;;;;;;;3.80;2.40;;;11.20;99.90;;;;;;5029423;28;20041;-88
2024/02/17 07:34:07;;;;;;;5.45;2.38;;;11.30;99.90;;;;;;4990349;28;1161484;-87
2024/02/17 07:36:33;;;;;;;4.25;2.47;;;11.20;99.90;;;;;;5028262;28;20028;-86
2024/02/17 07:38:58;;;;;;;3.10;2.33;;;11.20;99.90;;;;;;5028547;28;20018;-88
2024/02/17 07:41:24;;;;;;;4.13;2.72;;;11.20;99.90;;;;;;5035143;28;20025;-87
2024/02/17 07:43:52;;;;;;;4.28;2.47;;;11.20;99.90;;;;;;5029625;28;20030;-88
2024/02/17 07:46:18;;;;;;;4.93;2.92;;;11.20;99.90;;;;;;5034270;28;20033;-88
2024/02/17 07:48:45;;;;;;;5.85;3.13;;;11.20;99.90;;;;;;5028149;28;20022;-88
2024/02/17 07:51:11;;;;;;;4.57;2.72;;;11.20;99.90;;;;;;5029926;28;20555;-87
2024/02/17 07:53:37;;;;;;;5.47;3.30;;;11.30;99.90;;;;;;5032336;28;20537;-87
2024/02/17 07:56:03;;;;;;;4.93;3.05;;;11.30;99.90;;;;;;5024233;28;20025;-87
2024/02/17 07:58:29;;;;;;;6.55;3.10;;;11.30;99.90;;;;;;5042615;28;20160;-87
2024/02/17 08:00:54;;;;;;;5.10;3.28;;;11.30;99.90;;;;;;5034512;28;20100;-87
2024/02/17 08:03:20;;;;;;;9.35;4.30;;;11.30;99.90;;;;;;5028681;28;20492;-88
2024/02/17 08:05:45;;;;;;;5.35;3.42;;;11.30;99.90;;;;;;5025791;28;20428;-86
2024/02/17 08:08:11;;;;;;;7.03;3.70;;;11.30;99.90;;;;;;5022934;28;20029;-87
2024/02/17 08:10:36;;;;;;;8.07;4.00;;;11.30;99.90;;;;;;5028423;28;20119;-88
2024/02/17 08:13:02;;;;;;;10.13;4.50;;;11.30;99.90;;;;;;5029737;28;20485;-88
2024/02/17 08:15:28;;;;;;;7.47;4.07;;;11.30;99.90;;;;;;5023329;28;20037;-88
2024/02/17 08:17:53;;;;;;;8.23;4.10;;;11.30;99.90;;;;;;5025533;28;20018;-88
2024/02/17 08:20:19;;;;;;;9.00;4.82;;;11.30;99.90;;;;;;5029625;28;20773;-87
2024/02/17 08:22:44;;;;;;;11.27;4.78;;;11.30;99.90;;;;;;5029135;28;20022;-87
2024/02/17 08:25:10;;;;;;;12.13;4.65;;;11.30;99.90;;;;;;5032642;28;20080;-89
2024/02/17 08:27:36;;;;;;;10.50;5.18;;;11.30;99.90;;;;;;5024343;28;20032;-87
2024/02/17 08:30:03;;;;;;;10.98;4.60;;;11.30;99.90;;;;;;5026093;28;20029;-89
2024/02/17 08:32:29;;;;;;;10.65;4.97;;;11.30;99.90;;;;;;5029344;28;20083;-88
2024/02/17 08:34:54;;;;;;;8.52;4.85;;;11.30;99.90;;;;;;5024378;28;20025;-88
2024/02/17 08:37:20;;;;;;;7.15;4.57;;;11.30;99.90;;;;;;5031822;28;20022;-88
2024/02/17 08:39:49;;;;;;;11.40;5.07;;;11.30;99.90;;;;;;5034102;28;20017;-88
2024/02/17 08:42:14;;;;;;;7.68;4.50;;;11.40;99.90;;;;;;5032913;28;20476;-87
2024/02/17 08:44:40;;;;;;;10.48;5.28;;;11.40;99.90;;;;;;5030412;28;20029;-89
2024/02/17 08:47:06;;;;;;;9.32;5.55;;;11.50;99.90;;;;;;5035405;28;20544;-88
2024/02/17 08:49:31;;;;;;;10.27;6.00;;;11.50;99.90;;;;;;5056779;28;20030;-87
2024/02/17 08:51:57;;;;;;;9.30;5.28;;;11.60;99.90;;;;;;5034999;28;20037;-88
2024/02/17 08:54:25;;;;;;;11.57;5.60;;;11.60;99.90;;;;;;5030496;28;20037;-88
2024/02/17 08:56:51;;;;;;;10.60;5.72;;;11.60;99.90;;;;;;5027573;28;20020;-88
2024/02/17 08:59:17;;;;;;;13.35;6.13;;;11.60;99.90;;;;;;5034431;28;20026;-88
2024/02/17 09:01:42;;;;;;;9.25;5.70;;;11.60;99.90;;;;;;5042682;28;20021;-87
2024/02/17 09:04:08;;;;;;;10.20;6.15;;;11.60;99.90;;;;;;5028949;28;20091;-88
2024/02/17 09:06:33;;;;;;;12.63;6.68;;;11.70;99.90;;;;;;5035865;28;20028;-88
2024/02/17 09:08:59;;;;;;;11.85;6.43;;;11.80;99.90;;;;;;5035977;28;20099;-88
2024/02/17 09:11:25;;;;;;;16.02;7.10;;;12.10;99.90;;;;;;5028766;28;20029;-88
2024/02/17 09:13:50;;;;;;;11.93;6.50;;;12.30;99.90;;;;;;5027331;28;20029;-88
2024/02/17 09:16:16;;;;;;;12.68;6.28;;;12.60;99.90;;;;;;5028654;28;20026;-88
2024/02/17 09:18:42;;;;;;;12.43;6.65;;;12.90;99.90;;;;;;5021891;28;20571;-89
2024/02/17 09:21:08;;;;;;;13.32;6.65;;;13.10;99.90;;;;;;5030475;28;20056;-88
2024/02/17 09:23:34;;;;;;;10.55;5.90;;;13.10;99.90;;;;;;5031029;28;20029;-88
2024/02/17 09:26:00;;;;;;;9.57;6.20;;;12.90;99.90;;;;;;5035773;28;20105;-88
2024/02/17 09:28:26;;;;;;;10.15;5.75;;;12.80;99.90;;;;;;5024185;28;20112;-88
2024/02/17 09:30:52;;;;;;;13.07;7.03;;;12.70;99.90;;;;;;5035987;28;20547;-87
2024/02/17 09:33:20;;;;;;;10.80;5.95;;;12.60;99.90;;;;;;5025053;28;20083;-87
2024/02/17 09:35:46;;;;;;;9.80;6.10;;;12.50;99.90;;;;;;5023008;28;20048;-88
2024/02/17 09:38:11;;;;;;;14.15;6.60;;;12.40;99.90;;;;;;5032789;28;20435;-88
2024/02/17 09:40:37;;;;;;;12.15;6.43;;;12.40;99.90;;;;;;5022066;28;20392;-88
2024/02/17 09:43:03;;;;;;;12.02;6.32;;;12.30;99.90;;;;;;5029023;28;20060;-88
2024/02/17 09:45:29;;;;;;;9.88;6.00;;;12.40;99.90;;;;;;5023147;28;20025;-88
2024/02/17 09:47:56;;;;;;;11.88;6.25;;;12.60;99.90;;;;;;5035806;28;20026;-88
2024/02/17 09:50:22;;;;;;;14.23;6.88;;;12.70;99.90;;;;;;5040218;28;20021;-87
2024/02/17 09:52:49;;;;;;;12.63;6.63;;;12.60;99.90;;;;;;5035302;28;20495;-88
2024/02/17 09:55:15;;;;;;;10.80;6.53;;;12.50;99.90;;;;;;5033802;28;20107;-88
2024/02/17 09:57:42;;;;;;;10.93;6.45;;;12.40;99.90;;;;;;5023521;28;20140;-87
2024/02/17 10:00:10;;;;;;;12.60;6.00;;;12.20;99.90;;;;;;5032500;28;20024;-88
2024/02/17 10:02:36;;;;;;;11.70;6.50;;;12.20;99.90;;;;;;5056769;28;20502;-88
2024/02/17 10:05:02;;;;;;;15.05;6.43;;;12.10;99.90;;;;;;5042520;28;20108;-88
2024/02/17 10:07:28;;;;;;;11.18;6.43;;;12.10;99.90;;;;;;5026615;28;20559;-88
2024/02/17 10:09:54;;;;;;;12.55;7.20;;;12.00;99.90;;;;;;5034933;28;20041;-88
2024/02/17 10:12:20;;;;;;;10.90;6.03;;;12.00;99.90;;;;;;5029913;28;20061;-87
2024/02/17 10:14:51;;;;;;;13.32;5.93;;;12.10;99.90;;;;;;5030435;28;20026;-87
2024/02/17 10:17:17;;;;;;;9.20;5.65;;;12.30;99.90;;;;;;5033614;28;20034;-89
2024/02/17 10:19:43;;;;;;;11.88;6.43;;;12.40;99.90;;;;;;5023320;28;20029;-88
2024/02/17 10:22:08;;;;;;;8.50;5.78;;;12.40;99.90;;;;;;5027819;28;20491;-88
2024/02/17 10:24:34;;;;;;;9.88;5.70;;;12.30;99.90;;;;;;5034776;28;20076;-87
2024/02/17 10:27:00;;;;;;;9.68;5.72;;;12.30;99.90;;;;;;5031457;28;20499;-88
2024/02/17 10:29:26;;;;;;;8.10;5.05;;;12.30;99.90;;;;;;5031369;28;20021;-89
2024/02/17 10:31:52;;;;;;;10.35;5.63;;;12.20;99.90;;;;;;5025425;28;20499;-88
2024/02/17 10:34:17;;;;;;;9.65;5.32;;;12.20;99.90;;;;;;5027182;28;20072;-88
2024/02/17 10:36:43;;;;;;;8.48;5.63;;;12.10;99.90;;;;;;5029917;28;20488;-89
2024/02/17 10:39:13;;;;;;;9.60;5.13;;;12.20;99.90;;;;;;5028756;28;20021;-89
2024/02/17 10:41:39;;;;;;;10.80;5.70;;;12.40;99.90;;;;;;5033198;28;20021;-89
2024/02/17 10:44:05;;;;;;;10.57;5.47;;;12.50;99.90;;;;;;5026388;28;20030;-88
2024/02/17 10:46:34;;;;;;;10.77;5.00;;;12.40;99.90;;;;;;5031240;28;20029;-89
2024/02/17 10:49:25;;;;;;;9.27;4.93;;;12.40;99.90;;;;;;5031624;28;20071;-88
2024/02/17 10:51:57;;;;;;;9.32;5.45;;;12.30;99.90;;;;;;5031494;28;20092;-88
2024/02/17 10:54:54;;;;;;;10.88;5.35;;;12.30;99.90;;;;;;5026043;28;20527;-89
2024/02/17 10:57:21;;;;;;;9.23;4.97;;;12.30;99.90;;;;;;5024978;28;20034;-87
2024/02/17 10:59:51;;;;;;;9.18;5.28;;;12.70;99.90;;;;;;5027563;28;20056;-89
2024/02/17 11:02:24;;;;;;;8.25;4.95;;;13.20;99.90;;;;;;5037068;28;20033;-88
2024/02/17 11:04:50;;;;;;;7.00;4.68;;;13.50;99.90;;;;;;5030559;28;20032;-88
2024/02/17 11:07:17;;;;;;;11.57;5.57;;;13.40;99.90;;;;;;5031606;28;20075;-89
2024/02/17 11:09:45;;;;;;;7.97;4.82;;;13.20;99.90;;;;;;5026553;28;20098;-88
2024/02/17 11:12:29;;;;;;;8.10;5.13;;;12.90;99.90;;;;;;5029793;28;20022;-88
2024/02/17 11:15:08;;;;;;;10.75;5.47;;;12.70;99.90;;;;;;5025557;28;20479;-88
2024/02/17 11:17:42;;;;;;;7.97;5.10;;;12.60;99.90;;;;;;5032629;28;20025;-88
2024/02/17 11:20:14;;;;;;;8.25;4.82;;;12.80;99.90;;;;;;5026975;28;20017;-87
2024/02/17 11:22:45;;;;;;;10.23;5.53;;;13.30;99.90;;;;;;5027181;28;20037;-88
2024/02/17 11:25:11;;;;;;;9.63;5.40;;;13.80;99.90;;;;;;5014735;28;20028;-89
2024/02/17 11:27:41;;;;;;;9.38;4.88;;;14.20;99.90;;;;;;5021196;28;20033;-88
2024/02/17 11:30:08;;;;;;;8.43;4.78;;;14.50;99.90;;;;;;5026993;28;20021;-88
2024/02/17 11:32:36;;;;;;;7.57;5.18;;;14.70;99.90;;;;;;5034553;28;20033;-88
2024/02/17 11:35:03;;;;;;;8.07;5.38;;;14.80;99.90;;;;;;5045686;28;20029;-87
2024/02/17 11:37:32;;;;;;;8.20;4.38;;;15.00;99.90;;;;;;5035433;28;20104;-88
2024/02/17 11:40:00;;;;;;;6.55;4.45;;;15.00;99.90;;;;;;5032891;28;20029;-88
2024/02/17 11:42:26;;;;;;;7.95;4.85;;;14.80;99.90;;;;;;5032386;28;20029;-89
2024/02/17 11:44:54;;;;;;;7.20;4.75;;;14.60;99.90;;;;;;5025740;28;20026;-87
2024/02/17 11:47:20;;;;;;;6.50;4.00;;;14.30;99.90;;;;;;5022948;28;20084;-88
2024/02/17 11:49:45;;;;;;;5.75;3.90;;;13.90;99.90;;;;;;5029214;28;20439;-88
2024/02/17 11:52:11;;;;;;;6.05;4.18;;;13.60;99.90;;;;;;5031797;28;20450;-87
2024/02/17 11:54:43;;;;;;;7.60;4.25;;;13.40;99.90;;;;;;5023702;28;20137;-88
2024/02/17 11:57:10;;;;;;;11.25;5.80;;;13.30;99.90;;;;;;5025160;28;20022;-89
2024/02/17 11:59:36;;;;;;;8.40;5.30;;;13.40;99.90;;;;;;5037631;28;20765;-87
2024/02/17 12:02:03;;;;;;;8.60;5.30;;;13.50;99.90;;;;;;5044963;28;20029;-89
2024/02/17 12:04:29;;;;;;;8.38;4.78;;;13.50;99.90;;;;;;5027094;28;20032;-89
2024/02/17 12:06:55;;;;;;;11.63;5.45;;;13.70;99.90;;;;;;5024928;28;20029;-87
2024/02/17 12:09:21;;;;;;;12.57;5.07;;;13.90;99.90;;;;;;5033331;28;20670;-89
2024/02/17 12:11:46;;;;;;;8.57;5.28;;;14.10;99.90;;;;;;5028556;28;20124;-87
2024/02/17 12:14:12;;;;;;;8.48;5.35;;;14.20;99.90;;;;;;5033977;28;20018;-88
2024/02/17 12:16:38;;;;;;;9.75;5.22;;;14.20;99.90;;;;;;5035443;28;20050;-89
2024/02/17 12:19:10;;;;;;;7.90;5.28;;;14.30;99.90;;;;;;5043591;28;20475;-87
2024/02/17 12:21:37;;;;;;;11.02;6.03;;;14.30;99.90;;;;;;5024597;28;20051;-88
2024/02/17 12:24:05;;;;;;;8.30;5.38;;;14.20;99.90;;;;;;5033867;28;20029;-88
2024/02/17 12:26:32;;;;;;;9.38;5.40;;;14.10;99.90;;;;;;5039658;28;20025;-87
2024/02/17 12:29:05;;;;;;;8.48;5.05;;;14.00;99.90;;;;;;5049275;28;20029;-88
2024/02/17 12:31:31;;;;;;;7.88;4.68;;;13.90;99.90;;;;;;5031311;28;20017;-88
2024/02/17 12:33:58;;;;;;;7.85;4.88;;;13.80;99.90;;;;;;5025923;28;20048;-88
2024/02/17 12:36:23;;;;;;;10.77;5.20;;;13.70;99.90;;;;;;5031708;28;20114;-88
2024/02/17 12:39:00;;;;;;;9.52;4.82;;;13.60;99.90;;;;;;5032364;28;20085;-89
2024/02/17 12:41:26;;;;;;;6.32;4.13;;;13.50;99.90;;;;;;5044310;28;20033;-88
2024/02/17 12:43:52;;;;;;;8.65;4.40;;;13.40;99.90;;;;;;5035233;28;20396;-88
2024/02/17 12:46:23;;;;;;;8.95;5.25;;;13.30;99.90;;;;;;5026965;28;20029;-88